Time;durP1;ratioP1;P1;durP2;ratioP2;P2;SDS_P1;SDS_P2;PMS_P1;PMS_P2;Temp;Humidity;BMP_temperature;BMP_pressure;BME280_temperature;BME280_humidity;BME280_pressure;Samples;Min_cycle;Max_cycle;Signal;HPM_P1;HPM_P2
2021/09/27 00:00:10;;;;;;;9.30;6.93;;;18.70;1.00;;;;;;5054307;28;20546;-70
2021/09/27 00:02:37;;;;;;;7.30;6.67;;;18.70;1.00;;;;;;5053822;28;20455;-70
2021/09/27 00:05:06;;;;;;;10.23;6.77;;;18.70;1.00;;;;;;5053753;28;20465;-70
2021/09/27 00:07:32;;;;;;;7.87;7.17;;;18.70;1.00;;;;;;5054253;28;20464;-70
2021/09/27 00:09:59;;;;;;;7.33;6.60;;;18.70;1.00;;;;;;5053946;28;20462;-70
2021/09/27 00:12:26;;;;;;;8.93;8.13;;;18.70;1.00;;;;;;5053807;28;20490;-70
2021/09/27 00:14:54;;;;;;;9.70;7.33;;;18.70;1.00;;;;;;5053555;28;20462;-70
2021/09/27 00:17:20;;;;;;;7.67;6.97;;;18.60;1.00;;;;;;5053760;28;20452;-69
2021/09/27 00:19:47;;;;;;;9.63;6.77;;;18.60;1.00;;;;;;5053895;28;20474;-69
2021/09/27 00:22:15;;;;;;;8.93;8.03;;;18.60;1.00;;;;;;5053973;28;20448;-70
2021/09/27 00:24:42;;;;;;;7.23;6.53;;;18.60;1.00;;;;;;5053381;28;20478;-70
2021/09/27 00:27:09;;;;;;;8.30;7.60;;;18.50;1.00;;;;;;5053589;28;20471;-71
2021/09/27 00:29:36;;;;;;;8.27;7.47;;;18.50;1.00;;;;;;5056816;28;20492;-70
2021/09/27 00:32:04;;;;;;;9.27;7.40;;;18.50;1.00;;;;;;5057476;28;20475;-70
2021/09/27 00:34:31;;;;;;;8.83;7.60;;;18.50;1.00;;;;;;5057245;28;20457;-70
2021/09/27 00:37:00;;;;;;;7.60;6.90;;;18.50;1.00;;;;;;5056957;28;20946;-70
2021/09/27 00:39:27;;;;;;;8.07;7.30;;;18.50;1.00;;;;;;5057254;28;20458;-70
2021/09/27 00:41:53;;;;;;;7.60;7.00;;;18.40;1.00;;;;;;5057323;28;20518;-70
2021/09/27 00:44:20;;;;;;;8.93;8.10;;;18.40;1.00;;;;;;5057402;28;20463;-70
2021/09/27 00:46:47;;;;;;;8.50;7.60;;;18.40;1.00;;;;;;5056915;28;20914;-70
2021/09/27 00:49:15;;;;;;;11.13;7.80;;;18.40;1.00;;;;;;5056902;28;20959;-70
2021/09/27 00:51:44;;;;;;;8.77;7.97;;;18.40;1.00;;;;;;5056463;28;20984;-70
2021/09/27 00:54:14;;;;;;;9.00;8.10;;;18.30;1.00;;;;;;5056710;28;20468;-70
2021/09/27 00:56:45;;;;;;;9.70;8.70;;;18.30;1.00;;;;;;5056582;28;20543;-70
2021/09/27 00:59:12;;;;;;;8.50;7.70;;;18.30;1.00;;;;;;5056635;28;20854;-70
2021/09/27 01:01:42;;;;;;;8.93;8.03;;;18.30;1.00;;;;;;5056790;28;20838;-70
2021/09/27 01:04:09;;;;;;;9.87;8.87;;;18.30;1.00;;;;;;5056779;28;20535;-70
2021/09/27 01:07:09;;;;;;;8.40;7.63;;;18.30;1.00;;;;;;5056998;28;20839;-70
2021/09/27 01:09:49;;;;;;;7.80;7.10;;;18.30;1.00;;;;;;5056134;28;20899;-70
2021/09/27 01:12:48;;;;;;;8.80;8.00;;;18.20;1.00;;;;;;5056451;28;20470;-70
2021/09/27 01:15:27;;;;;;;9.60;8.17;;;18.20;1.00;;;;;;5046817;28;20825;-70
2021/09/27 01:18:03;;;;;;;9.20;8.40;;;18.20;1.00;;;;;;5057125;28;20453;-70
2021/09/27 01:21:02;;;;;;;8.80;8.00;;;18.20;4.40;;;;;;5056989;28;20449;-70
2021/09/27 01:24:10;;;;;;;9.30;7.70;;;18.10;6.20;;;;;;5056440;28;20440;-71
2021/09/27 01:27:05;;;;;;;8.63;7.83;;;18.10;10.10;;;;;;5056712;28;20459;-70
2021/09/27 01:30:05;;;;;;;8.90;8.10;;;18.10;13.30;;;;;;5056337;28;20498;-70
2021/09/27 01:32:37;;;;;;;9.03;8.10;;;18.10;17.60;;;;;;5031323;28;20861;-70
2021/09/27 01:35:15;;;;;;;8.30;7.60;;;18.10;19.00;;;;;;5055997;28;20440;-70
2021/09/27 01:37:53;;;;;;;8.30;7.50;;;18.00;22.20;;;;;;5056125;28;20512;-70
2021/09/27 01:40:24;;;;;;;9.73;7.87;;;18.00;23.60;;;;;;5054997;28;20866;-70
2021/09/27 01:42:58;;;;;;;8.97;8.07;;;18.00;22.90;;;;;;5056349;28;20436;-70
2021/09/27 01:45:31;;;;;;;9.30;8.33;;;18.00;23.00;;;;;;5056069;28;20478;-70
2021/09/27 01:48:05;;;;;;;9.13;7.97;;;18.00;23.90;;;;;;5056182;28;20443;-70
2021/09/27 01:50:38;;;;;;;8.97;7.80;;;18.00;24.60;;;;;;5055956;28;20546;-70
2021/09/27 01:53:10;;;;;;;9.07;7.43;;;18.00;25.70;;;;;;5056664;28;20751;-70
2021/09/27 01:55:44;;;;;;;8.37;7.50;;;18.00;28.20;;;;;;5055532;28;20454;-70
2021/09/27 01:58:19;;;;;;;7.50;6.80;;;18.00;28.50;;;;;;5055824;28;20459;-70
2021/09/27 02:00:50;;;;;;;8.23;7.33;;;18.00;27.80;;;;;;5055921;28;20448;-70
2021/09/27 02:03:26;;;;;;;8.60;7.60;;;18.00;29.00;;;;;;5056207;28;20447;-70
2021/09/27 02:06:02;;;;;;;8.63;7.53;;;18.10;27.00;;;;;;5055521;28;20444;-70
2021/09/27 02:08:33;;;;;;;8.03;7.27;;;18.10;23.00;;;;;;5055801;28;20791;-70
2021/09/27 02:11:07;;;;;;;8.67;7.87;;;18.10;19.90;;;;;;5055378;28;20445;-70
2021/09/27 02:13:39;;;;;;;8.80;7.60;;;18.10;22.00;;;;;;5055021;28;20471;-70
2021/09/27 02:16:11;;;;;;;8.33;7.43;;;18.10;20.10;;;;;;5055194;28;20495;-70
2021/09/27 02:18:45;;;;;;;8.60;7.17;;;18.10;16.10;;;;;;5055423;28;20781;-70
2021/09/27 02:21:15;;;;;;;8.30;7.50;;;18.20;12.80;;;;;;5055063;28;20450;-70
2021/09/27 02:23:47;;;;;;;7.23;6.63;;;18.20;5.90;;;;;;5055267;28;20453;-70
2021/09/27 02:26:14;;;;;;;8.00;7.20;;;18.20;1.00;;;;;;5055523;28;20450;-70
2021/09/27 02:28:42;;;;;;;11.50;7.70;;;18.20;1.00;;;;;;5055380;28;20457;-70
2021/09/27 02:31:14;;;;;;;8.80;7.63;;;18.20;1.00;;;;;;5054838;28;20924;-71
2021/09/27 02:33:51;;;;;;;9.53;7.40;;;18.20;1.00;;;;;;5055140;28;20474;-70
2021/09/27 02:36:23;;;;;;;9.23;8.17;;;18.30;1.00;;;;;;5055284;28;20443;-70
2021/09/27 02:38:57;;;;;;;9.07;8.17;;;18.30;1.00;;;;;;5055379;28;20444;-70
2021/09/27 02:41:28;;;;;;;10.67;8.47;;;18.30;1.00;;;;;;5055271;28;20447;-71
2021/09/27 02:43:55;;;;;;;9.10;8.20;;;18.20;1.00;;;;;;5055110;28;20753;-71
2021/09/27 02:46:23;;;;;;;9.53;7.70;;;18.20;1.00;;;;;;5054937;28;20470;-71
2021/09/27 02:48:57;;;;;;;8.00;7.30;;;18.20;1.00;;;;;;5054660;28;20931;-71
2021/09/27 02:51:25;;;;;;;10.23;7.50;;;18.20;1.00;;;;;;5054711;28;20900;-71
2021/09/27 02:53:52;;;;;;;8.60;7.70;;;18.20;1.00;;;;;;5054780;28;20494;-71
2021/09/27 02:56:46;;;;;;;8.00;7.27;;;18.20;1.00;;;;;;5054923;28;20468;-71
2021/09/27 02:59:19;;;;;;;7.43;6.83;;;18.10;1.00;;;;;;5054819;28;20451;-71
2021/09/27 03:01:51;;;;;;;9.00;7.43;;;18.10;1.00;;;;;;5054778;28;20503;-71
2021/09/27 03:04:30;;;;;;;8.00;7.30;;;18.10;1.00;;;;;;5054872;28;20466;-71
2021/09/27 03:07:11;;;;;;;8.30;7.50;;;18.10;1.00;;;;;;5054601;28;20447;-71
2021/09/27 03:09:48;;;;;;;7.40;6.70;;;18.10;1.00;;;;;;5054770;28;20440;-71
2021/09/27 03:12:36;;;;;;;7.50;6.73;;;18.00;1.00;;;;;;5054650;28;20437;-69
2021/09/27 03:15:35;;;;;;;7.70;6.90;;;18.00;1.00;;;;;;5054560;28;20447;-70
2021/09/27 03:18:09;;;;;;;8.10;7.30;;;18.00;1.00;;;;;;5054657;28;20440;-70
2021/09/27 03:20:55;;;;;;;8.47;7.30;;;18.00;1.00;;;;;;5054728;28;20443;-70
2021/09/27 03:23:31;;;;;;;8.73;7.87;;;17.90;6.70;;;;;;5054454;28;20435;-70
2021/09/27 03:26:07;;;;;;;7.63;6.93;;;17.90;8.10;;;;;;5054219;28;20892;-70
2021/09/27 03:28:44;;;;;;;7.70;7.00;;;17.90;13.40;;;;;;5055265;28;20450;-70
2021/09/27 03:31:18;;;;;;;7.77;7.00;;;17.90;11.30;;;;;;5054477;28;20454;-70
2021/09/27 03:33:55;;;;;;;8.10;7.40;;;17.90;9.00;;;;;;5054337;28;20464;-70
2021/09/27 03:36:43;;;;;;;8.80;7.80;;;17.90;10.90;;;;;;5054618;28;20451;-70
2021/09/27 03:39:19;;;;;;;8.57;7.10;;;17.90;13.00;;;;;;5054358;28;20444;-71
2021/09/27 03:41:50;;;;;;;9.27;8.37;;;17.90;14.10;;;;;;5054605;28;20776;-70
2021/09/27 03:44:27;;;;;;;8.47;7.63;;;17.90;14.70;;;;;;5054564;28;20466;-70
2021/09/27 03:46:59;;;;;;;8.07;7.37;;;17.90;20.70;;;;;;5054679;28;20780;-70
2021/09/27 03:49:40;;;;;;;9.07;8.07;;;17.90;22.20;;;;;;5054454;28;20447;-70
2021/09/27 03:52:14;;;;;;;8.83;8.07;;;17.90;23.50;;;;;;5055266;28;20443;-70
2021/09/27 03:54:50;;;;;;;8.27;7.40;;;18.00;21.00;;;;;;5055349;28;20512;-70
2021/09/27 03:57:25;;;;;;;8.30;7.50;;;18.00;17.80;;;;;;5055247;28;20436;-70
2021/09/27 03:59:58;;;;;;;8.70;7.80;;;18.00;18.40;;;;;;5058736;28;20463;-70
2021/09/27 04:02:35;;;;;;;8.23;7.43;;;18.00;19.80;;;;;;5058000;28;20508;-70
2021/09/27 04:05:07;;;;;;;7.77;7.07;;;18.00;14.00;;;;;;5062990;28;20436;-71
2021/09/27 04:07:47;;;;;;;7.97;7.20;;;18.00;13.20;;;;;;5063353;28;20436;-70
2021/09/27 04:10:21;;;;;;;8.57;7.67;;;18.10;13.60;;;;;;5063322;28;20434;-70
2021/09/27 04:13:14;;;;;;;8.53;7.73;;;18.10;11.50;;;;;;5061534;28;20533;-71
2021/09/27 04:15:59;;;;;;;8.53;7.73;;;18.10;8.00;;;;;;5058941;28;20493;-70
2021/09/27 04:18:32;;;;;;;8.20;7.40;;;18.10;8.30;;;;;;5060583;28;20445;-70
2021/09/27 04:21:08;;;;;;;7.83;7.13;;;18.10;4.80;;;;;;5057819;28;20436;-72
2021/09/27 04:23:55;;;;;;;9.07;8.23;;;18.00;8.20;;;;;;5057459;28;20448;-72
2021/09/27 04:26:39;;;;;;;9.60;7.97;;;18.00;10.20;;;;;;5057663;28;20447;-72
2021/09/27 04:29:31;;;;;;;9.13;8.23;;;18.10;9.10;;;;;;5057855;28;20453;-72
2021/09/27 04:32:09;;;;;;;8.17;7.53;;;18.10;6.60;;;;;;5057672;28;20449;-72
2021/09/27 04:35:00;;;;;;;9.13;8.33;;;18.10;3.90;;;;;;5057742;28;20482;-75
2021/09/27 04:37:29;;;;;;;9.93;8.00;;;18.10;2.10;;;;;;5057069;28;20466;-72
2021/09/27 04:39:58;;;;;;;9.23;8.33;;;18.10;2.60;;;;;;5057761;28;20466;-71
2021/09/27 04:43:00;;;;;;;8.73;7.63;;;18.10;1.00;;;;;;5057797;28;20462;-71
2021/09/27 04:45:54;;;;;;;7.70;7.00;;;18.10;1.00;;;;;;5057700;28;20463;-71
2021/09/27 04:48:48;;;;;;;12.73;8.60;;;18.10;1.00;;;;;;5057457;28;20796;-72
2021/09/27 04:51:20;;;;;;;7.93;7.13;;;18.10;1.00;;;;;;5060080;28;20470;-71
2021/09/27 04:54:19;;;;;;;8.33;7.63;;;18.10;2.00;;;;;;5061155;28;20494;-72
2021/09/27 04:57:00;;;;;;;11.23;8.10;;;18.00;3.00;;;;;;5059647;28;20500;-72
2021/09/27 04:59:38;;;;;;;9.27;8.47;;;18.00;7.10;;;;;;5060860;28;20911;-72
2021/09/27 05:02:27;;;;;;;9.30;8.30;;;18.00;5.80;;;;;;5060533;28;20453;-71
2021/09/27 05:05:07;;;;;;;8.20;7.40;;;18.10;9.90;;;;;;5059325;28;20448;-72
2021/09/27 05:07:55;;;;;;;9.40;8.60;;;18.10;8.10;;;;;;5058714;28;20907;-72
2021/09/27 05:10:47;;;;;;;14.17;8.70;;;18.10;6.00;;;;;;5058409;28;20444;-73
2021/09/27 05:13:43;;;;;;;10.70;8.40;;;18.10;6.10;;;;;;5059277;28;20475;-72
2021/09/27 05:16:25;;;;;;;11.03;7.83;;;18.00;5.20;;;;;;5055171;28;20578;-72
2021/09/27 05:19:18;;;;;;;9.83;8.10;;;18.10;7.70;;;;;;5061798;28;20475;-71
2021/09/27 05:22:14;;;;;;;8.37;7.57;;;18.10;9.30;;;;;;5061022;28;20464;-72
2021/09/27 05:24:54;;;;;;;8.80;7.90;;;18.00;10.50;;;;;;5060309;28;20448;-71
2021/09/27 05:27:54;;;;;;;7.83;7.10;;;18.10;9.80;;;;;;5059987;28;20435;-72
2021/09/27 05:30:34;;;;;;;7.80;7.00;;;18.10;11.80;;;;;;5058028;28;20775;-71
2021/09/27 05:33:11;;;;;;;9.83;8.50;;;18.10;8.60;;;;;;5059278;28;20847;-73
2021/09/27 05:35:53;;;;;;;9.63;8.63;;;18.10;10.70;;;;;;5060855;28;20450;-72
2021/09/27 05:38:27;;;;;;;8.57;7.77;;;18.10;7.50;;;;;;5059989;28;20450;-72
2021/09/27 05:41:04;;;;;;;9.03;7.90;;;18.10;11.90;;;;;;5060385;28;20445;-72
2021/09/27 05:43:44;;;;;;;18.47;14.93;;;18.10;11.30;;;;;;5058360;28;20473;-72
2021/09/27 05:46:41;;;;;;;12.00;7.80;;;18.20;10.20;;;;;;5057272;28;20446;-71
2021/09/27 05:49:13;;;;;;;8.80;7.90;;;18.20;8.40;;;;;;5060655;28;20438;-72
2021/09/27 05:51:47;;;;;;;9.87;8.63;;;18.20;8.60;;;;;;5057974;28;20497;-71
2021/09/27 05:54:19;;;;;;;9.03;8.13;;;18.20;4.90;;;;;;5056111;28;20463;-71
2021/09/27 05:56:53;;;;;;;9.23;8.33;;;18.20;6.50;;;;;;5056116;28;20444;-71
2021/09/27 05:59:27;;;;;;;9.77;8.77;;;18.30;4.40;;;;;;5055683;28;20811;-71
2021/09/27 06:02:12;;;;;;;8.90;8.20;;;18.30;1.00;;;;;;5055787;28;20459;-71
2021/09/27 06:04:49;;;;;;;11.17;8.87;;;18.30;1.40;;;;;;5055351;28;20445;-71
2021/09/27 06:07:25;;;;;;;52.20;40.13;;;18.30;2.90;;;;;;5055660;28;20899;-71
2021/09/27 06:10:03;;;;;;;10.37;9.30;;;18.30;1.00;;;;;;5055195;28;20446;-71
2021/09/27 06:12:40;;;;;;;9.43;8.43;;;18.40;1.00;;;;;;5055560;28;20443;-71
2021/09/27 06:15:10;;;;;;;9.83;8.83;;;18.40;1.00;;;;;;5054954;28;20481;-72
2021/09/27 06:17:57;;;;;;;9.80;8.80;;;18.40;1.00;;;;;;5055152;28;20437;-71
2021/09/27 06:20:32;;;;;;;11.80;8.13;;;18.50;1.00;;;;;;5054852;28;20454;-72
2021/09/27 06:23:13;;;;;;;10.93;9.03;;;18.50;1.00;;;;;;5055225;28;20451;-73
2021/09/27 06:25:46;;;;;;;10.13;8.67;;;18.50;1.00;;;;;;5055010;28;20784;-71
2021/09/27 06:28:22;;;;;;;12.00;7.30;;;18.60;1.00;;;;;;5055362;28;20442;-71
2021/09/27 06:30:53;;;;;;;10.77;7.83;;;18.60;1.00;;;;;;5055052;28;20457;-72
2021/09/27 06:33:28;;;;;;;9.60;8.63;;;18.70;1.00;;;;;;5055347;28;20466;-71
2021/09/27 06:35:57;;;;;;;9.70;8.47;;;18.70;1.00;;;;;;5055798;28;20444;-71
2021/09/27 06:38:30;;;;;;;9.13;8.33;;;18.80;1.00;;;;;;5055853;28;20523;-71
2021/09/27 06:40:58;;;;;;;9.13;8.23;;;18.80;1.00;;;;;;5055251;28;20447;-71
2021/09/27 06:43:28;;;;;;;10.70;8.50;;;18.80;1.00;;;;;;5055004;28;20484;-71
2021/09/27 06:45:56;;;;;;;9.60;8.30;;;18.90;1.00;;;;;;5054765;28;20464;-71
2021/09/27 06:48:25;;;;;;;8.37;7.67;;;18.90;1.00;;;;;;5054860;28;20466;-71
2021/09/27 06:50:52;;;;;;;14.43;7.97;;;19.00;1.00;;;;;;5054807;28;20482;-71
2021/09/27 06:53:20;;;;;;;9.53;8.20;;;19.10;1.00;;;;;;5054527;28;20470;-71
2021/09/27 06:55:47;;;;;;;8.10;7.30;;;19.20;1.00;;;;;;5054708;28;20460;-71
2021/09/27 06:58:14;;;;;;;35.77;29.50;;;19.20;1.00;;;;;;5054449;28;20473;-71
2021/09/27 07:00:42;;;;;;;21.57;17.90;;;19.30;1.00;;;;;;5054588;28;20467;-71
2021/09/27 07:03:08;;;;;;;9.10;7.80;;;19.40;1.00;;;;;;5054324;28;20491;-72
2021/09/27 07:05:36;;;;;;;10.73;8.47;;;19.40;1.00;;;;;;5054632;28;20456;-72
2021/09/27 07:08:04;;;;;;;10.20;7.43;;;19.50;1.00;;;;;;5054625;28;20533;-72
2021/09/27 07:10:30;;;;;;;12.57;8.40;;;19.50;1.00;;;;;;5054509;28;20459;-72
2021/09/27 07:12:57;;;;;;;9.43;8.43;;;19.60;1.00;;;;;;5054494;28;20478;-72
2021/09/27 07:15:24;;;;;;;15.50;8.13;;;19.70;1.00;;;;;;5053696;28;20491;-72
2021/09/27 07:17:51;;;;;;;9.63;7.30;;;19.70;1.00;;;;;;5054358;28;20784;-72
2021/09/27 07:20:20;;;;;;;10.40;7.47;;;19.80;1.00;;;;;;5054323;28;20469;-72
2021/09/27 07:22:48;;;;;;;14.10;8.30;;;19.80;1.00;;;;;;5053923;28;20489;-72
2021/09/27 07:25:17;;;;;;;10.37;8.37;;;19.80;1.00;;;;;;5054217;28;20773;-72
2021/09/27 07:27:44;;;;;;;8.90;8.00;;;19.90;1.00;;;;;;5054227;28;20466;-72
2021/09/27 07:30:13;;;;;;;8.83;7.97;;;19.90;1.00;;;;;;5054292;28;20796;-73
2021/09/27 07:32:41;;;;;;;7.93;7.10;;;19.90;1.00;;;;;;5053792;28;20934;-72
2021/09/27 07:35:10;;;;;;;12.03;8.17;;;19.90;1.00;;;;;;5054373;28;20498;-72
2021/09/27 07:37:38;;;;;;;9.03;8.13;;;20.00;1.00;;;;;;5056336;28;20459;-71
2021/09/27 07:40:10;;;;;;;9.60;8.53;;;20.00;1.00;;;;;;5057837;28;20554;-71
2021/09/27 07:42:37;;;;;;;9.47;7.87;;;19.90;1.00;;;;;;5058080;28;20753;-72
2021/09/27 07:45:05;;;;;;;12.60;8.17;;;19.90;1.00;;;;;;5057939;28;20567;-72
2021/09/27 07:47:34;;;;;;;8.83;7.40;;;20.00;1.00;;;;;;5057998;28;20466;-72
2021/09/27 07:50:01;;;;;;;10.30;8.10;;;20.10;1.00;;;;;;5058036;28;20463;-72
2021/09/27 07:52:28;;;;;;;11.63;9.97;;;20.30;1.00;;;;;;5057708;28;20463;-72
2021/09/27 07:54:55;;;;;;;8.40;7.60;;;20.40;1.00;;;;;;5058139;28;20506;-72
2021/09/27 07:57:23;;;;;;;9.93;8.50;;;20.50;1.00;;;;;;5061101;28;20535;-72
2021/09/27 07:59:53;;;;;;;11.93;8.60;;;20.60;1.00;;;;;;5057585;28;20448;-72
2021/09/27 08:02:19;;;;;;;9.67;8.20;;;20.70;1.00;;;;;;5057548;28;20493;-72
2021/09/27 08:04:46;;;;;;;14.00;7.90;;;20.80;1.00;;;;;;5057405;28;20465;-72
2021/09/27 08:07:16;;;;;;;8.70;7.83;;;20.90;1.00;;;;;;5057378;28;20467;-72
2021/09/27 08:09:43;;;;;;;7.90;7.10;;;21.00;99.90;;;;;;5058024;28;20455;-71
2021/09/27 08:12:10;;;;;;;8.33;7.10;;;21.20;99.90;;;;;;5057459;28;20474;-71
2021/09/27 08:14:38;;;;;;;7.43;6.63;;;21.30;99.90;;;;;;5057481;28;20471;-72
2021/09/27 08:17:05;;;;;;;12.30;7.50;;;21.50;1.00;;;;;;5057193;28;20486;-72
2021/09/27 08:19:32;;;;;;;10.47;7.77;;;21.50;1.00;;;;;;5057834;28;20466;-72
2021/09/27 08:21:58;;;;;;;7.87;7.10;;;21.60;99.90;;;;;;5057498;28;20465;-72
2021/09/27 08:24:25;;;;;;;9.10;8.20;;;21.70;99.90;;;;;;5057345;28;20456;-71
2021/09/27 08:26:52;;;;;;;11.67;7.93;;;21.80;99.90;;;;;;5057225;28;20463;-71
2021/09/27 08:29:19;;;;;;;7.97;7.17;;;21.80;1.00;;;;;;5057448;28;20847;-71
2021/09/27 08:31:48;;;;;;;7.67;6.97;;;21.80;99.90;;;;;;5057453;28;20455;-71
2021/09/27 08:34:16;;;;;;;8.00;7.30;;;21.70;99.90;;;;;;5057016;28;20796;-71
2021/09/27 08:36:44;;;;;;;8.37;7.63;;;21.70;99.90;;;;;;5057599;28;20803;-71
2021/09/27 08:39:11;;;;;;;9.20;8.30;;;21.60;1.80;;;;;;5057292;28;20613;-71
2021/09/27 08:41:49;;;;;;;13.20;7.27;;;21.50;1.00;;;;;;5057269;28;20466;-72
2021/09/27 08:44:28;;;;;;;9.77;7.57;;;21.40;99.90;;;;;;5057138;28;20436;-71
2021/09/27 08:47:02;;;;;;;8.53;7.83;;;21.40;99.90;;;;;;5057342;28;20443;-71
2021/09/27 08:49:37;;;;;;;11.07;8.50;;;21.20;1.00;;;;;;5056170;28;20451;-71
2021/09/27 08:52:05;;;;;;;9.03;8.03;;;21.00;99.90;;;;;;5056915;28;20516;-72
2021/09/27 08:54:33;;;;;;;10.43;8.97;;;20.80;1.00;;;;;;5056985;28;20486;-72
2021/09/27 08:57:10;;;;;;;14.70;8.60;;;20.70;1.00;;;;;;5056475;28;20456;-72
2021/09/27 08:59:46;;;;;;;9.40;8.10;;;20.60;89.50;;;;;;5056626;28;20913;-72
2021/09/27 09:02:30;;;;;;;12.83;8.97;;;20.60;99.90;;;;;;5056887;28;20775;-72
2021/09/27 09:05:10;;;;;;;9.43;8.50;;;20.60;99.90;;;;;;5056306;28;20493;-72
2021/09/27 09:07:45;;;;;;;9.10;8.13;;;20.60;99.90;;;;;;5056924;28;20888;-72
2021/09/27 09:10:16;;;;;;;8.30;7.50;;;20.50;99.90;;;;;;5056763;28;20470;-71
2021/09/27 09:12:51;;;;;;;10.27;9.10;;;20.50;99.90;;;;;;5056795;28;20440;-71
2021/09/27 09:15:21;;;;;;;8.97;8.07;;;20.50;99.90;;;;;;5056283;28;20497;-71
2021/09/27 09:17:53;;;;;;;9.70;8.40;;;20.50;99.90;;;;;;5056725;28;20451;-72
2021/09/27 09:20:27;;;;;;;8.47;7.67;;;20.60;99.90;;;;;;5056273;28;20444;-71
2021/09/27 09:22:55;;;;;;;14.33;9.87;;;20.60;99.90;;;;;;5055980;28;20884;-72
2021/09/27 09:25:26;;;;;;;9.63;8.63;;;20.60;99.90;;;;;;5055746;28;20946;-73
2021/09/27 09:27:53;;;;;;;9.30;8.10;;;20.50;99.90;;;;;;5056121;28;20509;-72
2021/09/27 09:30:23;;;;;;;8.90;8.00;;;20.50;99.90;;;;;;5055876;28;20460;-71
2021/09/27 09:32:55;;;;;;;8.93;8.07;;;20.60;99.90;;;;;;5056236;28;20459;-72
2021/09/27 09:35:24;;;;;;;9.93;8.03;;;20.60;1.00;;;;;;5056125;28;20467;-71
2021/09/27 09:37:54;;;;;;;8.47;7.60;;;20.70;1.00;;;;;;5056009;28;20474;-71
2021/09/27 09:40:25;;;;;;;9.63;8.67;;;20.90;1.00;;;;;;5056354;28;20451;-71
2021/09/27 09:43:01;;;;;;;9.97;7.97;;;21.00;99.90;;;;;;5055993;28;20448;-72
2021/09/27 09:45:31;;;;;;;11.03;7.83;;;21.10;99.90;;;;;;5056053;28;20773;-71
2021/09/27 09:48:16;;;;;;;13.83;9.57;;;21.20;1.00;;;;;;5055669;28;20936;-72
2021/09/27 09:50:45;;;;;;;8.33;7.53;;;21.30;99.90;;;;;;5055484;28;20453;-72
2021/09/27 09:53:25;;;;;;;10.37;7.63;;;21.30;1.00;;;;;;5055871;28;20460;-72
2021/09/27 09:55:57;;;;;;;8.50;7.60;;;21.40;1.00;;;;;;5055306;28;20491;-72
2021/09/27 09:58:38;;;;;;;13.60;8.10;;;21.50;1.00;;;;;;5055460;28;20881;-72
2021/09/27 10:01:08;;;;;;;11.93;8.30;;;21.50;1.00;;;;;;5054909;28;20785;-72
2021/09/27 10:03:39;;;;;;;8.37;7.57;;;21.60;99.90;;;;;;5055670;28;20901;-72
2021/09/27 10:06:08;;;;;;;8.10;7.30;;;21.70;99.90;;;;;;5055572;28;20435;-72
2021/09/27 10:08:37;;;;;;;9.30;8.07;;;21.80;90.80;;;;;;5055506;28;20452;-72
2021/09/27 10:11:07;;;;;;;8.50;7.70;;;21.90;1.00;;;;;;5055357;28;20466;-73
2021/09/27 10:13:41;;;;;;;12.23;9.47;;;22.00;1.00;;;;;;5055437;28;20448;-71
2021/09/27 10:16:16;;;;;;;9.70;7.93;;;21.90;99.90;;;;;;5055085;28;20488;-73
2021/09/27 10:18:46;;;;;;;8.50;7.70;;;21.90;99.90;;;;;;5055447;28;20458;-72
2021/09/27 10:21:31;;;;;;;10.50;8.10;;;21.90;99.90;;;;;;5055301;28;20463;-73
2021/09/27 10:24:13;;;;;;;11.30;8.83;;;22.00;99.90;;;;;;5053916;28;20509;-72
2021/09/27 10:26:41;;;;;;;13.43;8.23;;;22.00;99.90;;;;;;5055055;28;20883;-72
2021/09/27 10:29:12;;;;;;;23.23;9.77;;;22.00;99.90;;;;;;5054773;28;20466;-72
2021/09/27 10:31:41;;;;;;;14.23;9.57;;;21.90;71.20;;;;;;5055151;28;20755;-72
2021/09/27 10:34:15;;;;;;;12.57;9.03;;;21.90;99.90;;;;;;5055637;28;20468;-72
2021/09/27 10:36:46;;;;;;;14.60;9.80;;;21.80;99.90;;;;;;5055337;28;20446;-71
2021/09/27 10:39:15;;;;;;;11.93;9.30;;;21.80;1.00;;;;;;5054676;28;20486;-70
2021/09/27 10:41:50;;;;;;;10.00;9.00;;;21.70;1.00;;;;;;5054847;28;20468;-72
2021/09/27 10:44:22;;;;;;;11.00;8.90;;;21.60;1.00;;;;;;5055197;28;20455;-72
2021/09/27 10:46:53;;;;;;;13.30;8.93;;;21.60;1.00;;;;;;5055042;28;20550;-72
2021/09/27 10:49:27;;;;;;;11.73;9.63;;;21.60;99.90;;;;;;5055172;28;20486;-72
2021/09/27 10:51:57;;;;;;;17.07;8.50;;;21.60;99.90;;;;;;5055282;28;20439;-73
2021/09/27 10:54:34;;;;;;;22.57;8.93;;;21.70;99.90;;;;;;5054581;28;20543;-72
2021/09/27 10:57:01;;;;;;;10.10;9.00;;;21.70;1.00;;;;;;5054853;28;20455;-72
2021/09/27 10:59:36;;;;;;;9.20;8.30;;;21.80;99.90;;;;;;5054774;28;20455;-71
2021/09/27 11:02:14;;;;;;;11.97;9.50;;;21.90;99.90;;;;;;5054579;28;20439;-71
2021/09/27 11:04:45;;;;;;;10.70;9.60;;;22.00;99.90;;;;;;5054570;28;20734;-73
2021/09/27 11:07:29;;;;;;;10.17;9.20;;;22.00;1.00;;;;;;5054779;28;20443;-72
2021/09/27 11:09:59;;;;;;;9.63;8.70;;;22.20;1.00;;;;;;5054241;28;20476;-71
2021/09/27 11:12:37;;;;;;;11.40;7.77;;;22.40;54.10;;;;;;5054141;28;20459;-71
2021/09/27 11:15:13;;;;;;;8.83;7.43;;;22.60;1.00;;;;;;5054183;28;20472;-71
2021/09/27 11:17:46;;;;;;;10.40;8.50;;;22.80;1.00;;;;;;5054276;28;20460;-71
2021/09/27 11:20:40;;;;;;;9.50;8.50;;;23.00;99.90;;;;;;5054149;28;20460;-72
2021/09/27 11:23:19;;;;;;;10.50;9.13;;;23.30;1.00;;;;;;5054418;28;20458;-72
2021/09/27 11:25:49;;;;;;;8.40;7.63;;;23.50;1.00;;;;;;5053982;28;20508;-72
2021/09/27 11:28:30;;;;;;;12.10;8.30;;;23.80;1.00;;;;;;5054262;28;20456;-72
2021/09/27 11:31:18;;;;;;;9.97;8.57;;;24.10;99.90;;;;;;5054120;28;20446;-72
2021/09/27 11:33:50;;;;;;;9.23;7.90;;;24.40;1.00;;;;;;5054172;28;20528;-72
2021/09/27 11:36:34;;;;;;;8.40;7.60;;;24.60;99.90;;;;;;5053815;28;20471;-72
2021/09/27 11:39:22;;;;;;;9.27;7.77;;;24.70;1.00;;;;;;5053940;28;20505;-72
2021/09/27 11:42:27;;;;;;;9.40;7.87;;;24.70;1.00;;;;;;5054254;28;20534;-72
2021/09/27 11:45:11;;;;;;;9.10;8.10;;;24.60;99.90;;;;;;4998538;28;20462;-72
2021/09/27 11:48:00;;;;;;;9.90;8.90;;;24.40;99.90;;;;;;5054090;28;20444;-73
2021/09/27 11:51:03;;;;;;;10.50;8.43;;;24.30;99.90;;;;;;5053908;28;20451;-73
2021/09/27 11:53:43;;;;;;;18.90;8.50;;;24.10;99.90;;;;;;5054018;28;20451;-71
2021/09/27 11:56:15;;;;;;;11.97;8.30;;;24.00;1.00;;;;;;5053982;28;20474;-71
2021/09/27 11:58:49;;;;;;;10.37;8.10;;;23.70;1.00;;;;;;5054007;28;20444;-72
2021/09/27 12:01:30;;;;;;;8.93;8.03;;;23.50;1.00;;;;;;5054046;28;20443;-72
2021/09/27 12:04:00;;;;;;;11.20;7.53;;;23.40;1.00;;;;;;5053694;28;20893;-72
2021/09/27 12:06:32;;;;;;;9.20;8.30;;;23.30;99.90;;;;;;5054182;28;20514;-72
2021/09/27 12:09:05;;;;;;;11.70;10.10;;;23.20;99.90;;;;;;5053742;28;20550;-72
2021/09/27 12:11:35;;;;;;;11.67;9.00;;;23.00;99.90;;;;;;5053656;28;20904;-72
2021/09/27 12:14:03;;;;;;;11.10;7.80;;;22.90;99.90;;;;;;5054027;28;20505;-72
2021/09/27 12:16:33;;;;;;;9.10;7.07;;;22.80;1.00;;;;;;5052877;28;20487;-72
2021/09/27 12:19:02;;;;;;;11.10;10.00;;;22.80;1.00;;;;;;5053798;28;20455;-73
2021/09/27 12:21:31;;;;;;;9.00;8.10;;;22.90;1.00;;;;;;5053180;28;20963;-71
2021/09/27 12:24:06;;;;;;;7.90;7.10;;;22.90;1.00;;;;;;5054699;28;20791;-71
2021/09/27 12:26:39;;;;;;;9.40;7.60;;;23.00;1.00;;;;;;5057089;28;20435;-72
2021/09/27 12:29:11;;;;;;;7.80;6.90;;;23.00;1.00;;;;;;5056827;28;20836;-72
2021/09/27 12:31:45;;;;;;;8.70;7.00;;;23.00;1.00;;;;;;5057409;28;20443;-72
2021/09/27 12:34:14;;;;;;;7.67;6.40;;;23.10;1.00;;;;;;5056731;28;20892;-72
2021/09/27 12:36:41;;;;;;;8.53;6.70;;;23.00;99.90;;;;;;5057289;28;21012;-72
2021/09/27 12:39:09;;;;;;;10.70;7.23;;;23.00;99.90;;;;;;5056974;28;20462;-72
2021/09/27 12:41:39;;;;;;;7.20;6.37;;;23.10;1.00;;;;;;5057265;28;20471;-72
2021/09/27 12:44:09;;;;;;;7.67;6.97;;;23.20;1.00;;;;;;5057075;28;20455;-72
2021/09/27 12:46:37;;;;;;;9.07;8.17;;;23.30;99.90;;;;;;5057381;28;20451;-72
2021/09/27 12:49:07;;;;;;;7.77;6.40;;;23.40;1.00;;;;;;5056535;28;20463;-72
2021/09/27 12:51:37;;;;;;;12.37;7.50;;;23.50;99.90;;;;;;5056669;28;20556;-72
2021/09/27 12:54:06;;;;;;;7.50;6.80;;;23.30;98.40;;;;;;5056569;28;20456;-73
2021/09/27 12:56:34;;;;;;;7.50;6.80;;;23.20;99.90;;;;;;5056555;28;20479;-72
2021/09/27 12:59:05;;;;;;;10.30;7.80;;;23.20;1.00;;;;;;5056676;28;20463;-72
2021/09/27 13:01:35;;;;;;;15.13;8.63;;;23.30;1.00;;;;;;5059000;28;20463;-71
2021/09/27 13:04:05;;;;;;;7.83;7.00;;;23.50;1.00;;;;;;5056341;28;20475;-72
2021/09/27 13:06:34;;;;;;;10.83;7.23;;;23.60;1.00;;;;;;5056704;28;20957;-72
2021/09/27 13:09:11;;;;;;;8.48;7.63;;;23.70;99.90;;;;;;5056450;28;20822;-72
2021/09/27 13:11:41;;;;;;;9.77;7.97;;;23.60;99.90;;;;;;5056551;28;20216;-72
2021/09/27 13:14:17;;;;;;;8.13;7.43;;;23.50;99.90;;;;;;5056423;28;20483;-73
2021/09/27 13:16:46;;;;;;;7.97;7.17;;;23.40;1.00;;;;;;5056407;28;20483;-71
2021/09/27 13:19:37;;;;;;;14.73;7.83;;;23.40;1.00;;;;;;5056310;28;20494;-72
2021/09/27 13:22:05;;;;;;;11.03;7.47;;;23.20;1.00;;;;;;5056841;28;20478;-72
2021/09/27 13:24:32;;;;;;;8.83;8.00;;;23.20;1.00;;;;;;5057556;28;20467;-71
2021/09/27 13:27:05;;;;;;;9.10;8.20;;;23.20;1.00;;;;;;5056758;28;20908;-72